sensor_id;sensor_type;location;lat;lon;timestamp;P1;durP1;ratioP1;P2;durP2;ratioP2
71759;SDS011;59919;48.112;16.280;2023-04-24T00:02:19;2.35;;;1.88;;
71759;SDS011;59919;48.112;16.280;2023-04-24T00:04:50;2.75;;;1.95;;
71759;SDS011;59919;48.112;16.280;2023-04-24T00:07:26;2.08;;;1.73;;
71759;SDS011;59919;48.112;16.280;2023-04-24T00:10:00;2.55;;;1.80;;
71759;SDS011;59919;48.112;16.280;2023-04-24T00:12:38;1.92;;;1.73;;
71759;SDS011;59919;48.112;16.280;2023-04-24T00:15:15;2.78;;;1.73;;
71759;SDS011;59919;48.112;16.280;2023-04-24T00:17:46;2.40;;;1.73;;
71759;SDS011;59919;48.112;16.280;2023-04-24T00:20:22;2.50;;;1.77;;
71759;SDS011;59919;48.112;16.280;2023-04-24T00:22:53;2.45;;;1.90;;
71759;SDS011;59919;48.112;16.280;2023-04-24T00:25:30;1.85;;;1.73;;
71759;SDS011;59919;48.112;16.280;2023-04-24T00:28:01;2.53;;;1.92;;
71759;SDS011;59919;48.112;16.280;2023-04-24T00:30:32;3.50;;;1.95;;
71759;SDS011;59919;48.112;16.280;2023-04-24T00:33:06;2.33;;;1.90;;
71759;SDS011;59919;48.112;16.280;2023-04-24T00:35:40;2.17;;;1.77;;
71759;SDS011;59919;48.112;16.280;2023-04-24T00:38:12;1.77;;;1.67;;
71759;SDS011;59919;48.112;16.280;2023-04-24T00:40:45;2.20;;;1.73;;
71759;SDS011;59919;48.112;16.280;2023-04-24T00:43:20;1.95;;;1.50;;
71759;SDS011;59919;48.112;16.280;2023-04-24T00:45:51;2.15;;;1.88;;
71759;SDS011;59919;48.112;16.280;2023-04-24T00:48:25;2.45;;;1.75;;
71759;SDS011;59919;48.112;16.280;2023-04-24T00:51:01;2.15;;;1.95;;
71759;SDS011;59919;48.112;16.280;2023-04-24T00:53:33;2.85;;;2.00;;
71759;SDS011;59919;48.112;16.280;2023-04-24T00:56:04;2.47;;;2.00;;
71759;SDS011;59919;48.112;16.280;2023-04-24T00:58:36;2.28;;;1.80;;
71759;SDS011;59919;48.112;16.280;2023-04-24T01:01:10;2.88;;;1.90;;
71759;SDS011;59919;48.112;16.280;2023-04-24T01:03:43;2.47;;;2.00;;
71759;SDS011;59919;48.112;16.280;2023-04-24T01:06:15;2.30;;;2.00;;
71759;SDS011;59919;48.112;16.280;2023-04-24T01:08:53;2.65;;;2.08;;
71759;SDS011;59919;48.112;16.280;2023-04-24T01:11:30;2.22;;;1.90;;
71759;SDS011;59919;48.112;16.280;2023-04-24T01:14:06;2.42;;;1.90;;
71759;SDS011;59919;48.112;16.280;2023-04-24T01:16:37;2.80;;;2.10;;
71759;SDS011;59919;48.112;16.280;2023-04-24T01:19:12;2.60;;;2.10;;
71759;SDS011;59919;48.112;16.280;2023-04-24T01:21:50;1.92;;;1.75;;
71759;SDS011;59919;48.112;16.280;2023-04-24T01:24:23;1.92;;;1.60;;
71759;SDS011;59919;48.112;16.280;2023-04-24T01:26:57;2.38;;;1.77;;
71759;SDS011;59919;48.112;16.280;2023-04-24T01:29:29;1.88;;;1.70;;
71759;SDS011;59919;48.112;16.280;2023-04-24T01:32:00;2.10;;;1.75;;
71759;SDS011;59919;48.112;16.280;2023-04-24T01:34:32;2.47;;;1.88;;
71759;SDS011;59919;48.112;16.280;2023-04-24T01:37:09;2.50;;;1.88;;
71759;SDS011;59919;48.112;16.280;2023-04-24T01:39:43;2.35;;;1.70;;
71759;SDS011;59919;48.112;16.280;2023-04-24T01:42:14;2.42;;;1.80;;
71759;SDS011;59919;48.112;16.280;2023-04-24T01:44:51;2.78;;;1.98;;
71759;SDS011;59919;48.112;16.280;2023-04-24T01:47:23;2.10;;;1.90;;
71759;SDS011;59919;48.112;16.280;2023-04-24T01:49:58;1.90;;;1.65;;
71759;SDS011;59919;48.112;16.280;2023-04-24T01:52:33;2.15;;;1.73;;
71759;SDS011;59919;48.112;16.280;2023-04-24T01:55:07;1.70;;;1.50;;
71759;SDS011;59919;48.112;16.280;2023-04-24T01:57:41;2.67;;;1.80;;
71759;SDS011;59919;48.112;16.280;2023-04-24T02:00:20;2.33;;;1.90;;
71759;SDS011;59919;48.112;16.280;2023-04-24T02:02:54;1.88;;;1.50;;
71759;SDS011;59919;48.112;16.280;2023-04-24T02:05:25;2.13;;;1.75;;
71759;SDS011;59919;48.112;16.280;2023-04-24T02:07:57;2.17;;;1.70;;
71759;SDS011;59919;48.112;16.280;2023-04-24T02:10:31;2.60;;;1.90;;
71759;SDS011;59919;48.112;16.280;2023-04-24T02:13:02;1.58;;;1.48;;
71759;SDS011;59919;48.112;16.280;2023-04-24T02:15:35;2.05;;;1.65;;
71759;SDS011;59919;48.112;16.280;2023-04-24T02:18:06;2.08;;;1.92;;
71759;SDS011;59919;48.112;16.280;2023-04-24T02:20:45;2.35;;;2.05;;
71759;SDS011;59919;48.112;16.280;2023-04-24T02:23:16;2.05;;;1.60;;
71759;SDS011;59919;48.112;16.280;2023-04-24T02:25:52;1.88;;;1.45;;
71759;SDS011;59919;48.112;16.280;2023-04-24T02:28:23;1.75;;;1.35;;
71759;SDS011;59919;48.112;16.280;2023-04-24T02:30:57;1.70;;;1.60;;
71759;SDS011;59919;48.112;16.280;2023-04-24T02:33:31;2.15;;;1.90;;
71759;SDS011;59919;48.112;16.280;2023-04-24T02:36:02;1.90;;;1.67;;
71759;SDS011;59919;48.112;16.280;2023-04-24T02:38:34;1.80;;;1.65;;
71759;SDS011;59919;48.112;16.280;2023-04-24T02:41:05;3.10;;;2.72;;
71759;SDS011;59919;48.112;16.280;2023-04-24T02:43:45;1.50;;;1.40;;
71759;SDS011;59919;48.112;16.280;2023-04-24T02:46:19;1.83;;;1.50;;
71759;SDS011;59919;48.112;16.280;2023-04-24T02:48:53;1.83;;;1.67;;
71759;SDS011;59919;48.112;16.280;2023-04-24T02:51:24;1.90;;;1.80;;
71759;SDS011;59919;48.112;16.280;2023-04-24T02:53:55;1.75;;;1.50;;
71759;SDS011;59919;48.112;16.280;2023-04-24T02:56:29;2.05;;;1.73;;
71759;SDS011;59919;48.112;16.280;2023-04-24T02:59:03;1.88;;;1.67;;
71759;SDS011;59919;48.112;16.280;2023-04-24T03:01:37;1.55;;;1.45;;
71759;SDS011;59919;48.112;16.280;2023-04-24T03:04:08;2.70;;;1.60;;
71759;SDS011;59919;48.112;16.280;2023-04-24T03:06:39;1.95;;;1.60;;
71759;SDS011;59919;48.112;16.280;2023-04-24T03:09:10;1.70;;;1.50;;
71759;SDS011;59919;48.112;16.280;2023-04-24T03:11:41;2.22;;;1.65;;
71759;SDS011;59919;48.112;16.280;2023-04-24T03:14:15;2.13;;;1.40;;
71759;SDS011;59919;48.112;16.280;2023-04-24T03:16:46;1.60;;;1.42;;
71759;SDS011;59919;48.112;16.280;2023-04-24T03:19:19;1.95;;;1.73;;
71759;SDS011;59919;48.112;16.280;2023-04-24T03:21:53;1.63;;;1.52;;
71759;SDS011;59919;48.112;16.280;2023-04-24T03:24:24;1.73;;;1.63;;
71759;SDS011;59919;48.112;16.280;2023-04-24T03:26:55;1.75;;;1.48;;
71759;SDS011;59919;48.112;16.280;2023-04-24T03:29:27;1.70;;;1.52;;
71759;SDS011;59919;48.112;16.280;2023-04-24T03:32:01;1.90;;;1.55;;
71759;SDS011;59919;48.112;16.280;2023-04-24T03:34:32;1.58;;;1.42;;
71759;SDS011;59919;48.112;16.280;2023-04-24T03:37:03;2.25;;;1.50;;
71759;SDS011;59919;48.112;16.280;2023-04-24T03:39:34;1.73;;;1.60;;
71759;SDS011;59919;48.112;16.280;2023-04-24T03:42:08;1.80;;;1.40;;
71759;SDS011;59919;48.112;16.280;2023-04-24T03:44:39;1.50;;;1.40;;
71759;SDS011;59919;48.112;16.280;2023-04-24T03:47:11;1.80;;;1.40;;
71759;SDS011;59919;48.112;16.280;2023-04-24T03:49:42;1.42;;;1.25;;
71759;SDS011;59919;48.112;16.280;2023-04-24T03:52:15;1.98;;;1.42;;
71759;SDS011;59919;48.112;16.280;2023-04-24T03:54:46;1.63;;;1.52;;
71759;SDS011;59919;48.112;16.280;2023-04-24T03:57:17;1.55;;;1.45;;
71759;SDS011;59919;48.112;16.280;2023-04-24T03:59:48;1.77;;;1.60;;
71759;SDS011;59919;48.112;16.280;2023-04-24T04:02:22;1.73;;;1.25;;
71759;SDS011;59919;48.112;16.280;2023-04-24T04:04:53;1.58;;;1.13;;
71759;SDS011;59919;48.112;16.280;2023-04-24T04:07:26;1.50;;;1.40;;
71759;SDS011;59919;48.112;16.280;2023-04-24T04:10:00;1.50;;;1.40;;
71759;SDS011;59919;48.112;16.280;2023-04-24T04:12:31;1.75;;;1.48;;
71759;SDS011;59919;48.112;16.280;2023-04-24T04:15:08;1.48;;;1.25;;
71759;SDS011;59919;48.112;16.280;2023-04-24T04:17:46;1.60;;;1.50;;
71759;SDS011;59919;48.112;16.280;2023-04-24T04:20:17;1.60;;;1.42;;
71759;SDS011;59919;48.112;16.280;2023-04-24T04:22:48;1.67;;;1.38;;
71759;SDS011;59919;48.112;16.280;2023-04-24T04:25:21;1.67;;;1.40;;
71759;SDS011;59919;48.112;16.280;2023-04-24T04:27:56;1.77;;;1.60;;
71759;SDS011;59919;48.112;16.280;2023-04-24T04:30:32;1.95;;;1.58;;
71759;SDS011;59919;48.112;16.280;2023-04-24T04:33:03;2.28;;;1.30;;
71759;SDS011;59919;48.112;16.280;2023-04-24T04:35:34;1.35;;;1.25;;
71759;SDS011;59919;48.112;16.280;2023-04-24T04:38:11;1.40;;;1.30;;
71759;SDS011;59919;48.112;16.280;2023-04-24T04:40:43;1.90;;;1.65;;
71759;SDS011;59919;48.112;16.280;2023-04-24T04:43:18;1.65;;;1.20;;
71759;SDS011;59919;48.112;16.280;2023-04-24T04:45:49;1.40;;;1.20;;
71759;SDS011;59919;48.112;16.280;2023-04-24T04:48:25;1.88;;;1.40;;
71759;SDS011;59919;48.112;16.280;2023-04-24T04:50:56;1.48;;;1.38;;
71759;SDS011;59919;48.112;16.280;2023-04-24T04:53:27;1.70;;;1.33;;
71759;SDS011;59919;48.112;16.280;2023-04-24T04:55:58;1.65;;;1.30;;
71759;SDS011;59919;48.112;16.280;2023-04-24T04:58:30;1.42;;;1.33;;
71759;SDS011;59919;48.112;16.280;2023-04-24T05:01:03;1.50;;;1.33;;
71759;SDS011;59919;48.112;16.280;2023-04-24T05:03:35;2.20;;;1.40;;
71759;SDS011;59919;48.112;16.280;2023-04-24T05:06:08;1.63;;;1.30;;
71759;SDS011;59919;48.112;16.280;2023-04-24T05:08:42;1.40;;;1.30;;
71759;SDS011;59919;48.112;16.280;2023-04-24T05:11:18;1.67;;;1.50;;
71759;SDS011;59919;48.112;16.280;2023-04-24T05:13:51;2.85;;;1.75;;
71759;SDS011;59919;48.112;16.280;2023-04-24T05:16:25;1.40;;;1.20;;
71759;SDS011;59919;48.112;16.280;2023-04-24T05:18:59;1.85;;;1.27;;
71759;SDS011;59919;48.112;16.280;2023-04-24T05:21:32;2.30;;;1.50;;
71759;SDS011;59919;48.112;16.280;2023-04-24T05:24:03;2.08;;;1.23;;
71759;SDS011;59919;48.112;16.280;2023-04-24T05:26:35;1.30;;;1.20;;
71759;SDS011;59919;48.112;16.280;2023-04-24T05:29:06;1.23;;;1.13;;
71759;SDS011;59919;48.112;16.280;2023-04-24T05:31:37;1.60;;;1.50;;
71759;SDS011;59919;48.112;16.280;2023-04-24T05:34:16;2.25;;;1.60;;
71759;SDS011;59919;48.112;16.280;2023-04-24T05:36:47;1.67;;;1.38;;
71759;SDS011;59919;48.112;16.280;2023-04-24T05:39:19;1.52;;;1.40;;
71759;SDS011;59919;48.112;16.280;2023-04-24T05:41:53;1.52;;;1.17;;
71759;SDS011;59919;48.112;16.280;2023-04-24T05:44:26;1.55;;;1.17;;
71759;SDS011;59919;48.112;16.280;2023-04-24T05:46:59;1.40;;;1.30;;
71759;SDS011;59919;48.112;16.280;2023-04-24T05:49:31;2.17;;;1.40;;
71759;SDS011;59919;48.112;16.280;2023-04-24T05:52:02;1.83;;;1.45;;
71759;SDS011;59919;48.112;16.280;2023-04-24T05:54:36;1.60;;;1.30;;
71759;SDS011;59919;48.112;16.280;2023-04-24T05:57:12;2.00;;;1.33;;
71759;SDS011;59919;48.112;16.280;2023-04-24T05:59:43;1.80;;;1.45;;
71759;SDS011;59919;48.112;16.280;2023-04-24T06:02:15;1.60;;;1.30;;
71759;SDS011;59919;48.112;16.280;2023-04-24T06:04:49;1.58;;;1.40;;
71759;SDS011;59919;48.112;16.280;2023-04-24T06:07:20;1.35;;;1.20;;
71759;SDS011;59919;48.112;16.280;2023-04-24T06:09:51;1.45;;;1.33;;
71759;SDS011;59919;48.112;16.280;2023-04-24T06:12:25;1.45;;;1.30;;
71759;SDS011;59919;48.112;16.280;2023-04-24T06:14:59;3.75;;;2.00;;
71759;SDS011;59919;48.112;16.280;2023-04-24T06:17:32;3.85;;;2.10;;
71759;SDS011;59919;48.112;16.280;2023-04-24T06:20:06;4.00;;;2.05;;
71759;SDS011;59919;48.112;16.280;2023-04-24T06:22:38;4.32;;;2.65;;
71759;SDS011;59919;48.112;16.280;2023-04-24T06:25:17;5.45;;;2.88;;
71759;SDS011;59919;48.112;16.280;2023-04-24T06:27:48;3.35;;;2.10;;
71759;SDS011;59919;48.112;16.280;2023-04-24T06:30:19;3.95;;;2.55;;
71759;SDS011;59919;48.112;16.280;2023-04-24T06:32:50;4.32;;;2.50;;
71759;SDS011;59919;48.112;16.280;2023-04-24T06:35:21;3.40;;;2.13;;
71759;SDS011;59919;48.112;16.280;2023-04-24T06:37:55;5.15;;;2.63;;
71759;SDS011;59919;48.112;16.280;2023-04-24T06:40:26;4.95;;;2.70;;
71759;SDS011;59919;48.112;16.280;2023-04-24T06:42:57;4.38;;;2.30;;
71759;SDS011;59919;48.112;16.280;2023-04-24T06:45:30;3.58;;;2.40;;
71759;SDS011;59919;48.112;16.280;2023-04-24T06:48:07;4.03;;;2.30;;
71759;SDS011;59919;48.112;16.280;2023-04-24T06:50:38;6.43;;;2.35;;
71759;SDS011;59919;48.112;16.280;2023-04-24T06:53:13;3.95;;;2.20;;
71759;SDS011;59919;48.112;16.280;2023-04-24T06:55:47;4.22;;;2.25;;
71759;SDS011;59919;48.112;16.280;2023-04-24T06:58:19;4.25;;;2.22;;
71759;SDS011;59919;48.112;16.280;2023-04-24T07:00:50;2.78;;;2.03;;
71759;SDS011;59919;48.112;16.280;2023-04-24T07:03:23;5.78;;;2.28;;
71759;SDS011;59919;48.112;16.280;2023-04-24T07:05:57;6.53;;;2.25;;
71759;SDS011;59919;48.112;16.280;2023-04-24T07:08:28;3.88;;;2.03;;
71759;SDS011;59919;48.112;16.280;2023-04-24T07:11:01;6.80;;;2.25;;
71759;SDS011;59919;48.112;16.280;2023-04-24T07:13:38;6.45;;;2.30;;
71759;SDS011;59919;48.112;16.280;2023-04-24T07:16:12;6.47;;;2.30;;
71759;SDS011;59919;48.112;16.280;2023-04-24T07:18:47;6.63;;;2.50;;
71759;SDS011;59919;48.112;16.280;2023-04-24T07:21:18;3.47;;;1.83;;
71759;SDS011;59919;48.112;16.280;2023-04-24T07:23:52;4.18;;;2.22;;
71759;SDS011;59919;48.112;16.280;2023-04-24T07:26:26;4.35;;;2.08;;
71759;SDS011;59919;48.112;16.280;2023-04-24T07:28:58;4.05;;;1.90;;
71759;SDS011;59919;48.112;16.280;2023-04-24T07:31:30;4.45;;;1.90;;
71759;SDS011;59919;48.112;16.280;2023-04-24T07:34:02;3.30;;;1.95;;
71759;SDS011;59919;48.112;16.280;2023-04-24T07:36:33;3.97;;;2.00;;
71759;SDS011;59919;48.112;16.280;2023-04-24T07:39:04;4.68;;;1.85;;
71759;SDS011;59919;48.112;16.280;2023-04-24T07:41:38;3.40;;;2.40;;
71759;SDS011;59919;48.112;16.280;2023-04-24T07:44:09;6.13;;;1.95;;
71759;SDS011;59919;48.112;16.280;2023-04-24T07:46:43;4.93;;;1.83;;
71759;SDS011;59919;48.112;16.280;2023-04-24T07:49:17;6.47;;;2.10;;
71759;SDS011;59919;48.112;16.280;2023-04-24T07:51:53;2.97;;;2.00;;
71759;SDS011;59919;48.112;16.280;2023-04-24T07:54:26;7.15;;;2.05;;
71759;SDS011;59919;48.112;16.280;2023-04-24T07:56:57;4.32;;;2.00;;
71759;SDS011;59919;48.112;16.280;2023-04-24T07:59:29;5.35;;;2.05;;
71759;SDS011;59919;48.112;16.280;2023-04-24T08:02:00;4.75;;;2.45;;
71759;SDS011;59919;48.112;16.280;2023-04-24T08:04:32;4.57;;;2.25;;
71759;SDS011;59919;48.112;16.280;2023-04-24T08:07:03;4.15;;;1.90;;
71759;SDS011;59919;48.112;16.280;2023-04-24T08:09:35;65.85;;;7.05;;
71759;SDS011;59919;48.112;16.280;2023-04-24T08:12:08;53.83;;;7.25;;
71759;SDS011;59919;48.112;16.280;2023-04-24T08:14:39;73.82;;;8.65;;
71759;SDS011;59919;48.112;16.280;2023-04-24T08:17:13;74.38;;;9.88;;
71759;SDS011;59919;48.112;16.280;2023-04-24T08:19:44;61.55;;;8.70;;
71759;SDS011;59919;48.112;16.280;2023-04-24T08:22:18;57.58;;;8.13;;
71759;SDS011;59919;48.112;16.280;2023-04-24T08:24:49;59.80;;;8.25;;
71759;SDS011;59919;48.112;16.280;2023-04-24T08:27:21;46.03;;;7.03;;
71759;SDS011;59919;48.112;16.280;2023-04-24T08:30:01;46.55;;;7.78;;
71759;SDS011;59919;48.112;16.280;2023-04-24T08:32:34;53.85;;;7.43;;
71759;SDS011;59919;48.112;16.280;2023-04-24T08:35:08;55.42;;;7.82;;
71759;SDS011;59919;48.112;16.280;2023-04-24T08:37:40;43.75;;;6.18;;
71759;SDS011;59919;48.112;16.280;2023-04-24T08:40:14;35.85;;;6.13;;
71759;SDS011;59919;48.112;16.280;2023-04-24T08:42:49;39.88;;;6.25;;
71759;SDS011;59919;48.112;16.280;2023-04-24T08:45:27;45.25;;;7.78;;
71759;SDS011;59919;48.112;16.280;2023-04-24T08:47:58;46.30;;;7.75;;
71759;SDS011;59919;48.112;16.280;2023-04-24T08:50:30;38.72;;;6.20;;
71759;SDS011;59919;48.112;16.280;2023-04-24T08:53:05;41.05;;;6.18;;
71759;SDS011;59919;48.112;16.280;2023-04-24T08:55:41;36.15;;;7.20;;
71759;SDS011;59919;48.112;16.280;2023-04-24T08:58:16;30.58;;;7.60;;
71759;SDS011;59919;48.112;16.280;2023-04-24T09:00:50;16.13;;;6.97;;
71759;SDS011;59919;48.112;16.280;2023-04-24T09:03:27;17.15;;;5.70;;
71759;SDS011;59919;48.112;16.280;2023-04-24T09:06:01;22.08;;;6.60;;
71759;SDS011;59919;48.112;16.280;2023-04-24T09:08:39;17.02;;;5.65;;
71759;SDS011;59919;48.112;16.280;2023-04-24T09:11:13;19.30;;;5.03;;
71759;SDS011;59919;48.112;16.280;2023-04-24T09:13:49;17.60;;;5.50;;
71759;SDS011;59919;48.112;16.280;2023-04-24T09:16:21;14.75;;;5.53;;
71759;SDS011;59919;48.112;16.280;2023-04-24T09:18:58;13.70;;;4.30;;
71759;SDS011;59919;48.112;16.280;2023-04-24T09:21:34;13.55;;;4.60;;
71759;SDS011;59919;48.112;16.280;2023-04-24T09:24:15;12.18;;;4.45;;
71759;SDS011;59919;48.112;16.280;2023-04-24T09:26:57;11.88;;;4.38;;
71759;SDS011;59919;48.112;16.280;2023-04-24T09:29:32;5.97;;;3.55;;
71759;SDS011;59919;48.112;16.280;2023-04-24T09:32:19;10.43;;;4.15;;
71759;SDS011;59919;48.112;16.280;2023-04-24T09:35:10;11.73;;;3.85;;
71759;SDS011;59919;48.112;16.280;2023-04-24T09:37:47;13.45;;;3.83;;
71759;SDS011;59919;48.112;16.280;2023-04-24T09:40:20;9.43;;;3.10;;
71759;SDS011;59919;48.112;16.280;2023-04-24T09:42:56;10.35;;;3.67;;
71759;SDS011;59919;48.112;16.280;2023-04-24T09:45:39;6.33;;;3.10;;
71759;SDS011;59919;48.112;16.280;2023-04-24T09:48:13;11.93;;;2.90;;
71759;SDS011;59919;48.112;16.280;2023-04-24T09:50:45;12.23;;;2.97;;
71759;SDS011;59919;48.112;16.280;2023-04-24T09:53:17;7.97;;;3.13;;
71759;SDS011;59919;48.112;16.280;2023-04-24T09:56:06;9.75;;;2.80;;
71759;SDS011;59919;48.112;16.280;2023-04-24T09:58:39;5.55;;;2.58;;
71759;SDS011;59919;48.112;16.280;2023-04-24T10:01:10;9.30;;;3.00;;
71759;SDS011;59919;48.112;16.280;2023-04-24T10:03:44;10.13;;;2.75;;
71759;SDS011;59919;48.112;16.280;2023-04-24T10:06:22;9.20;;;2.85;;
71759;SDS011;59919;48.112;16.280;2023-04-24T10:09:03;5.95;;;2.60;;
71759;SDS011;59919;48.112;16.280;2023-04-24T10:11:37;8.20;;;2.70;;
71759;SDS011;59919;48.112;16.280;2023-04-24T10:14:18;7.47;;;2.78;;
71759;SDS011;59919;48.112;16.280;2023-04-24T10:16:54;12.85;;;3.15;;
71759;SDS011;59919;48.112;16.280;2023-04-24T10:19:32;9.98;;;2.83;;
71759;SDS011;59919;48.112;16.280;2023-04-24T10:22:04;8.40;;;2.90;;
71759;SDS011;59919;48.112;16.280;2023-04-24T10:24:36;8.35;;;2.83;;
71759;SDS011;59919;48.112;16.280;2023-04-24T10:27:08;6.53;;;2.80;;
71759;SDS011;59919;48.112;16.280;2023-04-24T10:29:40;7.03;;;2.35;;
71759;SDS011;59919;48.112;16.280;2023-04-24T10:32:13;7.10;;;2.53;;
71759;SDS011;59919;48.112;16.280;2023-04-24T10:34:46;8.07;;;2.30;;
71759;SDS011;59919;48.112;16.280;2023-04-24T10:37:18;5.07;;;2.10;;
71759;SDS011;59919;48.112;16.280;2023-04-24T10:39:51;4.43;;;2.17;;
71759;SDS011;59919;48.112;16.280;2023-04-24T10:42:28;7.38;;;2.42;;
71759;SDS011;59919;48.112;16.280;2023-04-24T10:45:07;6.63;;;2.10;;
71759;SDS011;59919;48.112;16.280;2023-04-24T10:47:51;5.90;;;2.13;;
71759;SDS011;59919;48.112;16.280;2023-04-24T10:50:23;7.45;;;2.50;;
71759;SDS011;59919;48.112;16.280;2023-04-24T10:53:14;5.75;;;2.47;;
71759;SDS011;59919;48.112;16.280;2023-04-24T10:55:50;10.77;;;3.38;;
71759;SDS011;59919;48.112;16.280;2023-04-24T10:58:24;7.28;;;2.05;;
71759;SDS011;59919;48.112;16.280;2023-04-24T11:01:09;5.28;;;2.10;;
71759;SDS011;59919;48.112;16.280;2023-04-24T11:03:59;6.80;;;3.00;;
71759;SDS011;59919;48.112;16.280;2023-04-24T11:06:34;5.32;;;2.08;;
71759;SDS011;59919;48.112;16.280;2023-04-24T11:09:07;7.97;;;2.30;;
71759;SDS011;59919;48.112;16.280;2023-04-24T11:11:44;5.63;;;2.10;;
71759;SDS011;59919;48.112;16.280;2023-04-24T11:14:18;5.90;;;2.10;;
71759;SDS011;59919;48.112;16.280;2023-04-24T11:16:52;6.90;;;2.38;;
71759;SDS011;59919;48.112;16.280;2023-04-24T11:19:31;6.93;;;2.50;;
71759;SDS011;59919;48.112;16.280;2023-04-24T11:22:04;4.32;;;1.90;;
71759;SDS011;59919;48.112;16.280;2023-04-24T11:27:23;8.20;;;2.72;;
71759;SDS011;59919;48.112;16.280;2023-04-24T11:35:01;10.45;;;4.20;;
71759;SDS011;59919;48.112;16.280;2023-04-24T11:37:35;14.30;;;3.45;;
71759;SDS011;59919;48.112;16.280;2023-04-24T11:40:08;12.65;;;3.60;;
71759;SDS011;59919;48.112;16.280;2023-04-24T11:42:44;9.15;;;2.42;;
71759;SDS011;59919;48.112;16.280;2023-04-24T11:47:54;14.20;;;3.28;;
71759;SDS011;59919;48.112;16.280;2023-04-24T11:50:25;11.18;;;2.92;;
71759;SDS011;59919;48.112;16.280;2023-04-24T11:52:58;11.65;;;2.90;;
71759;SDS011;59919;48.112;16.280;2023-04-24T11:55:31;5.65;;;2.60;;
71759;SDS011;59919;48.112;16.280;2023-04-24T11:58:02;10.82;;;3.25;;
71759;SDS011;59919;48.112;16.280;2023-04-24T12:00:33;12.00;;;3.05;;
71759;SDS011;59919;48.112;16.280;2023-04-24T12:03:08;8.48;;;2.60;;
71759;SDS011;59919;48.112;16.280;2023-04-24T12:05:43;11.70;;;2.85;;
71759;SDS011;59919;48.112;16.280;2023-04-24T12:08:28;9.68;;;2.50;;
71759;SDS011;59919;48.112;16.280;2023-04-24T12:11:03;9.48;;;2.33;;
71759;SDS011;59919;48.112;16.280;2023-04-24T12:13:35;8.55;;;2.30;;
71759;SDS011;59919;48.112;16.280;2023-04-24T12:16:06;6.82;;;2.60;;
71759;SDS011;59919;48.112;16.280;2023-04-24T12:18:41;9.13;;;2.05;;
71759;SDS011;59919;48.112;16.280;2023-04-24T12:21:19;5.57;;;2.17;;
71759;SDS011;59919;48.112;16.280;2023-04-24T12:23:54;5.78;;;2.42;;
71759;SDS011;59919;48.112;16.280;2023-04-24T12:26:28;10.93;;;2.33;;
71759;SDS011;59919;48.112;16.280;2023-04-24T12:29:01;7.95;;;2.50;;
71759;SDS011;59919;48.112;16.280;2023-04-24T12:31:34;6.65;;;2.22;;
71759;SDS011;59919;48.112;16.280;2023-04-24T12:34:18;5.65;;;2.53;;
71759;SDS011;59919;48.112;16.280;2023-04-24T12:36:50;6.47;;;3.92;;
71759;SDS011;59919;48.112;16.280;2023-04-24T12:39:24;13.20;;;3.83;;
71759;SDS011;59919;48.112;16.280;2023-04-24T12:41:57;10.23;;;2.70;;
71759;SDS011;59919;48.112;16.280;2023-04-24T12:44:33;7.68;;;2.35;;
71759;SDS011;59919;48.112;16.280;2023-04-24T12:47:04;8.30;;;3.00;;
71759;SDS011;59919;48.112;16.280;2023-04-24T12:49:35;8.00;;;2.50;;
71759;SDS011;59919;48.112;16.280;2023-04-24T12:52:07;6.40;;;2.65;;
71759;SDS011;59919;48.112;16.280;2023-04-24T12:54:38;7.88;;;2.65;;
71759;SDS011;59919;48.112;16.280;2023-04-24T12:57:11;9.48;;;3.08;;
71759;SDS011;59919;48.112;16.280;2023-04-24T12:59:42;10.10;;;2.92;;
71759;SDS011;59919;48.112;16.280;2023-04-24T13:02:16;8.15;;;2.78;;
71759;SDS011;59919;48.112;16.280;2023-04-24T13:04:52;5.82;;;2.30;;
71759;SDS011;59919;48.112;16.280;2023-04-24T13:10:02;8.68;;;2.83;;
71759;SDS011;59919;48.112;16.280;2023-04-24T13:12:34;11.00;;;3.05;;
71759;SDS011;59919;48.112;16.280;2023-04-24T13:15:05;13.63;;;2.65;;
71759;SDS011;59919;48.112;16.280;2023-04-24T13:17:38;10.80;;;2.60;;
71759;SDS011;59919;48.112;16.280;2023-04-24T13:20:10;10.07;;;3.35;;
71759;SDS011;59919;48.112;16.280;2023-04-24T13:22:43;8.00;;;2.67;;
71759;SDS011;59919;48.112;16.280;2023-04-24T13:25:17;6.47;;;2.15;;
71759;SDS011;59919;48.112;16.280;2023-04-24T13:27:48;8.25;;;2.45;;
71759;SDS011;59919;48.112;16.280;2023-04-24T13:30:22;9.40;;;2.60;;
71759;SDS011;59919;48.112;16.280;2023-04-24T13:32:53;6.47;;;2.05;;
71759;SDS011;59919;48.112;16.280;2023-04-24T13:35:27;7.07;;;2.22;;
71759;SDS011;59919;48.112;16.280;2023-04-24T13:38:01;6.70;;;1.80;;
71759;SDS011;59919;48.112;16.280;2023-04-24T13:40:36;7.47;;;2.03;;
71759;SDS011;59919;48.112;16.280;2023-04-24T13:43:10;7.57;;;2.38;;
71759;SDS011;59919;48.112;16.280;2023-04-24T13:45:44;6.22;;;2.05;;
71759;SDS011;59919;48.112;16.280;2023-04-24T13:48:20;6.78;;;2.00;;
71759;SDS011;59919;48.112;16.280;2023-04-24T13:50:52;9.82;;;2.13;;
71759;SDS011;59919;48.112;16.280;2023-04-24T13:53:23;9.60;;;1.98;;
71759;SDS011;59919;48.112;16.280;2023-04-24T13:55:57;6.20;;;1.80;;
71759;SDS011;59919;48.112;16.280;2023-04-24T13:58:28;7.55;;;2.00;;
71759;SDS011;59919;48.112;16.280;2023-04-24T14:01:04;14.17;;;3.43;;
71759;SDS011;59919;48.112;16.280;2023-04-24T14:03:36;7.90;;;2.58;;
71759;SDS011;59919;48.112;16.280;2023-04-24T14:06:10;11.02;;;2.60;;
71759;SDS011;59919;48.112;16.280;2023-04-24T14:08:41;7.13;;;2.33;;
71759;SDS011;59919;48.112;16.280;2023-04-24T14:11:13;3.45;;;2.20;;
71759;SDS011;59919;48.112;16.280;2023-04-24T14:13:45;7.57;;;2.20;;
71759;SDS011;59919;48.112;16.280;2023-04-24T14:16:16;8.23;;;2.67;;
71759;SDS011;59919;48.112;16.280;2023-04-24T14:18:47;8.63;;;2.78;;
71759;SDS011;59919;48.112;16.280;2023-04-24T14:21:21;9.30;;;2.92;;
71759;SDS011;59919;48.112;16.280;2023-04-24T14:23:55;11.98;;;3.92;;
71759;SDS011;59919;48.112;16.280;2023-04-24T14:26:33;9.00;;;3.20;;
71759;SDS011;59919;48.112;16.280;2023-04-24T14:29:07;6.32;;;2.85;;
71759;SDS011;59919;48.112;16.280;2023-04-24T14:31:43;10.85;;;3.42;;
71759;SDS011;59919;48.112;16.280;2023-04-24T14:34:16;12.82;;;3.40;;
71759;SDS011;59919;48.112;16.280;2023-04-24T14:36:50;9.13;;;3.85;;
71759;SDS011;59919;48.112;16.280;2023-04-24T14:39:23;10.52;;;4.05;;
71759;SDS011;59919;48.112;16.280;2023-04-24T14:41:56;18.45;;;5.05;;
71759;SDS011;59919;48.112;16.280;2023-04-24T14:44:28;12.10;;;4.78;;
71759;SDS011;59919;48.112;16.280;2023-04-24T14:46:59;13.18;;;4.32;;
71759;SDS011;59919;48.112;16.280;2023-04-24T14:49:30;16.08;;;4.63;;
71759;SDS011;59919;48.112;16.280;2023-04-24T14:52:01;11.80;;;4.32;;
71759;SDS011;59919;48.112;16.280;2023-04-24T14:54:33;9.63;;;3.65;;
71759;SDS011;59919;48.112;16.280;2023-04-24T14:57:04;13.85;;;4.63;;
71759;SDS011;59919;48.112;16.280;2023-04-24T14:59:40;11.30;;;3.97;;
71759;SDS011;59919;48.112;16.280;2023-04-24T15:02:20;10.23;;;3.45;;
71759;SDS011;59919;48.112;16.280;2023-04-24T15:11:27;11.93;;;3.90;;
71759;SDS011;59919;48.112;16.280;2023-04-24T15:14:01;8.45;;;3.90;;
71759;SDS011;59919;48.112;16.280;2023-04-24T15:16:32;12.80;;;3.47;;
71759;SDS011;59919;48.112;16.280;2023-04-24T15:19:09;9.07;;;3.38;;
71759;SDS011;59919;48.112;16.280;2023-04-24T15:21:41;16.95;;;3.90;;
71759;SDS011;59919;48.112;16.280;2023-04-24T15:24:13;13.25;;;4.18;;
71759;SDS011;59919;48.112;16.280;2023-04-24T15:26:44;19.50;;;3.90;;
71759;SDS011;59919;48.112;16.280;2023-04-24T15:29:15;14.32;;;3.42;;